sensor_id;sensor_type;location;lat;lon;timestamp;pressure;altitude;pressure_sealevel;temperature;humidity
17505;BME280;8870;50.950;11.762;2022-10-28T00:02:31;99042.31;;;15.90;100.00
17505;BME280;8870;50.950;11.762;2022-10-28T00:08:05;99035.97;;;15.98;100.00
17505;BME280;8870;50.950;11.762;2022-10-28T00:13:23;99041.22;;;15.99;100.00
17505;BME280;8870;50.950;11.762;2022-10-28T00:18:55;99043.75;;;16.01;100.00
17505;BME280;8870;50.950;11.762;2022-10-28T00:24:17;99049.38;;;15.99;100.00
17505;BME280;8870;50.950;11.762;2022-10-28T00:29:49;99033.81;;;15.93;100.00
17505;BME280;8870;50.950;11.762;2022-10-28T00:35:22;99041.44;;;15.90;100.00
17505;BME280;8870;50.950;11.762;2022-10-28T00:40:43;99048.41;;;15.84;100.00
17505;BME280;8870;50.950;11.762;2022-10-28T00:46:19;99040.53;;;15.74;100.00
17505;BME280;8870;50.950;11.762;2022-10-28T00:51:38;99039.22;;;15.62;100.00
17505;BME280;8870;50.950;11.762;2022-10-28T00:57:15;99041.94;;;15.62;100.00
17505;BME280;8870;50.950;11.762;2022-10-28T01:02:36;99031.31;;;15.52;100.00
17505;BME280;8870;50.950;11.762;2022-10-28T01:08:10;99035.91;;;15.51;100.00
17505;BME280;8870;50.950;11.762;2022-10-28T01:13:39;99026.59;;;15.46;100.00
17505;BME280;8870;50.950;11.762;2022-10-28T01:31:30;99029.53;;;15.36;100.00
17505;BME280;8870;50.950;11.762;2022-10-28T01:36:56;99032.44;;;15.26;100.00
17505;BME280;8870;50.950;11.762;2022-10-28T01:42:33;99025.16;;;15.27;100.00
17505;BME280;8870;50.950;11.762;2022-10-28T01:48:00;99017.19;;;15.25;100.00
17505;BME280;8870;50.950;11.762;2022-10-28T01:53:34;99015.13;;;15.27;100.00
17505;BME280;8870;50.950;11.762;2022-10-28T01:58:57;99022.59;;;15.25;100.00
17505;BME280;8870;50.950;11.762;2022-10-28T02:04:32;99021.09;;;15.22;100.00
17505;BME280;8870;50.950;11.762;2022-10-28T02:10:02;99018.56;;;15.21;100.00
17505;BME280;8870;50.950;11.762;2022-10-28T02:15:45;99013.44;;;15.26;100.00
17505;BME280;8870;50.950;11.762;2022-10-28T02:21:13;99013.63;;;15.24;100.00
17505;BME280;8870;50.950;11.762;2022-10-28T02:26:53;99006.50;;;15.23;100.00
17505;BME280;8870;50.950;11.762;2022-10-28T02:32:15;98999.91;;;15.18;100.00
17505;BME280;8870;50.950;11.762;2022-10-28T02:37:53;98993.31;;;15.12;100.00
17505;BME280;8870;50.950;11.762;2022-10-28T02:43:12;98996.38;;;15.09;100.00
17505;BME280;8870;50.950;11.762;2022-10-28T02:48:47;98993.00;;;15.07;100.00
17505;BME280;8870;50.950;11.762;2022-10-28T02:54:11;98979.28;;;15.00;100.00
17505;BME280;8870;50.950;11.762;2022-10-28T03:05:12;98971.53;;;14.89;100.00
17505;BME280;8870;50.950;11.762;2022-10-28T03:10:47;98978.16;;;14.86;100.00
17505;BME280;8870;50.950;11.762;2022-10-28T03:16:05;98982.09;;;14.84;100.00
17505;BME280;8870;50.950;11.762;2022-10-28T03:21:36;98977.19;;;14.79;100.00
17505;BME280;8870;50.950;11.762;2022-10-28T03:27:04;98996.34;;;14.77;100.00
17505;BME280;8870;50.950;11.762;2022-10-28T03:32:36;98988.88;;;14.79;100.00
17505;BME280;8870;50.950;11.762;2022-10-28T03:37:58;98975.00;;;14.74;100.00
17505;BME280;8870;50.950;11.762;2022-10-28T03:43:37;98976.38;;;14.70;100.00
17505;BME280;8870;50.950;11.762;2022-10-28T03:49:10;98979.75;;;14.64;100.00
17505;BME280;8870;50.950;11.762;2022-10-28T04:00:15;98985.84;;;14.58;100.00
17505;BME280;8870;50.950;11.762;2022-10-28T04:05:33;98990.59;;;14.56;100.00
17505;BME280;8870;50.950;11.762;2022-10-28T04:11:04;98988.22;;;14.53;100.00
17505;BME280;8870;50.950;11.762;2022-10-28T04:16:25;98989.94;;;14.45;100.00
17505;BME280;8870;50.950;11.762;2022-10-28T04:22:00;98995.72;;;14.42;100.00
17505;BME280;8870;50.950;11.762;2022-10-28T04:27:10;98995.34;;;14.54;100.00
17505;BME280;8870;50.950;11.762;2022-10-28T04:32:44;98999.75;;;14.55;100.00
17505;BME280;8870;50.950;11.762;2022-10-28T04:38:07;98987.56;;;14.59;100.00
17505;BME280;8870;50.950;11.762;2022-10-28T04:49:26;98976.38;;;14.62;100.00
17505;BME280;8870;50.950;11.762;2022-10-28T04:55:01;98972.97;;;14.60;100.00
17505;BME280;8870;50.950;11.762;2022-10-28T05:00:12;98986.53;;;14.60;100.00
17505;BME280;8870;50.950;11.762;2022-10-28T05:05:46;98989.59;;;14.57;100.00
17505;BME280;8870;50.950;11.762;2022-10-28T05:11:05;98979.44;;;14.51;100.00
17505;BME280;8870;50.950;11.762;2022-10-28T05:16:35;98988.94;;;14.46;100.00
17505;BME280;8870;50.950;11.762;2022-10-28T05:21:58;98985.22;;;14.39;100.00
17505;BME280;8870;50.950;11.762;2022-10-28T05:27:29;98987.09;;;14.30;100.00
17505;BME280;8870;50.950;11.762;2022-10-28T05:32:47;98992.66;;;14.29;100.00
17505;BME280;8870;50.950;11.762;2022-10-28T05:38:21;98993.34;;;14.31;100.00
17505;BME280;8870;50.950;11.762;2022-10-28T05:43:40;98996.75;;;14.33;100.00
17505;BME280;8870;50.950;11.762;2022-10-28T05:49:12;98996.06;;;14.31;100.00
17505;BME280;8870;50.950;11.762;2022-10-28T05:54:37;98992.50;;;14.39;100.00
17505;BME280;8870;50.950;11.762;2022-10-28T06:00:10;99007.94;;;14.38;100.00
17505;BME280;8870;50.950;11.762;2022-10-28T06:05:30;98994.19;;;14.40;100.00
17505;BME280;8870;50.950;11.762;2022-10-28T06:11:04;98989.44;;;14.42;100.00
17505;BME280;8870;50.950;11.762;2022-10-28T06:16:23;98997.75;;;14.40;100.00
17505;BME280;8870;50.950;11.762;2022-10-28T06:21:57;99002.31;;;14.40;100.00
17505;BME280;8870;50.950;11.762;2022-10-28T06:27:25;99010.81;;;14.45;100.00
17505;BME280;8870;50.950;11.762;2022-10-28T06:32:56;99021.63;;;14.53;100.00
17505;BME280;8870;50.950;11.762;2022-10-28T06:38:21;99018.38;;;14.58;100.00
17505;BME280;8870;50.950;11.762;2022-10-28T06:43:57;99029.72;;;14.61;100.00
17505;BME280;8870;50.950;11.762;2022-10-28T06:49:15;99031.63;;;14.69;100.00
17505;BME280;8870;50.950;11.762;2022-10-28T06:54:46;99036.38;;;14.75;100.00
17505;BME280;8870;50.950;11.762;2022-10-28T07:00:08;99029.72;;;14.86;100.00
17505;BME280;8870;50.950;11.762;2022-10-28T07:05:39;99026.47;;;14.99;100.00
17505;BME280;8870;50.950;11.762;2022-10-28T07:10:58;99030.47;;;15.12;100.00
17505;BME280;8870;50.950;11.762;2022-10-28T07:16:33;99039.09;;;15.23;100.00
17505;BME280;8870;50.950;11.762;2022-10-28T07:22:13;99040.72;;;15.33;100.00
17505;BME280;8870;50.950;11.762;2022-10-28T07:27:44;99035.09;;;15.43;100.00
17505;BME280;8870;50.950;11.762;2022-10-28T07:33:06;99023.81;;;15.54;100.00
17505;BME280;8870;50.950;11.762;2022-10-28T07:38:38;99022.88;;;15.70;100.00
17505;BME280;8870;50.950;11.762;2022-10-28T07:43:57;99008.03;;;15.81;100.00
17505;BME280;8870;50.950;11.762;2022-10-28T07:49:31;98998.63;;;15.92;100.00
17505;BME280;8870;50.950;11.762;2022-10-28T07:54:51;98988.34;;;16.02;100.00
17505;BME280;8870;50.950;11.762;2022-10-28T08:00:22;98979.66;;;16.07;100.00
17505;BME280;8870;50.950;11.762;2022-10-28T08:05:43;98967.72;;;16.16;100.00
17505;BME280;8870;50.950;11.762;2022-10-28T08:11:16;98956.09;;;16.22;100.00
17505;BME280;8870;50.950;11.762;2022-10-28T08:16:36;98953.28;;;16.30;100.00
17505;BME280;8870;50.950;11.762;2022-10-28T08:22:10;98942.44;;;16.45;100.00
17505;BME280;8870;50.950;11.762;2022-10-28T08:27:28;98929.50;;;16.62;100.00
17505;BME280;8870;50.950;11.762;2022-10-28T08:33:02;98929.19;;;16.72;100.00
17505;BME280;8870;50.950;11.762;2022-10-28T08:38:23;98909.66;;;16.84;100.00
17505;BME280;8870;50.950;11.762;2022-10-28T08:44:17;98883.09;;;17.01;100.00
17505;BME280;8870;50.950;11.762;2022-10-28T08:49:42;98896.47;;;17.17;100.00
17505;BME280;8870;50.950;11.762;2022-10-28T08:55:21;98891.19;;;17.31;100.00
17505;BME280;8870;50.950;11.762;2022-10-28T09:00:44;98894.03;;;17.44;100.00
17505;BME280;8870;50.950;11.762;2022-10-28T09:06:17;98902.97;;;17.60;100.00
17505;BME280;8870;50.950;11.762;2022-10-28T09:11:52;98906.09;;;17.78;100.00
17505;BME280;8870;50.950;11.762;2022-10-28T09:17:32;98908.94;;;17.92;100.00
17505;BME280;8870;50.950;11.762;2022-10-28T09:22:58;98904.41;;;17.99;100.00
17505;BME280;8870;50.950;11.762;2022-10-28T09:28:45;98899.84;;;18.06;100.00
17505;BME280;8870;50.950;11.762;2022-10-28T09:34:18;98908.53;;;18.16;100.00
17505;BME280;8870;50.950;11.762;2022-10-28T09:39:56;98909.63;;;18.29;100.00
17505;BME280;8870;50.950;11.762;2022-10-28T09:45:22;98919.56;;;18.37;100.00
17505;BME280;8870;50.950;11.762;2022-10-28T09:50:58;98922.94;;;18.39;100.00
17505;BME280;8870;50.950;11.762;2022-10-28T09:56:17;98913.38;;;18.50;100.00
17505;BME280;8870;50.950;11.762;2022-10-28T10:01:51;98910.91;;;18.61;100.00
17505;BME280;8870;50.950;11.762;2022-10-28T10:07:28;98905.47;;;18.68;100.00
17505;BME280;8870;50.950;11.762;2022-10-28T10:13:03;98902.56;;;18.70;100.00
17505;BME280;8870;50.950;11.762;2022-10-28T10:18:27;98899.44;;;18.79;100.00
17505;BME280;8870;50.950;11.762;2022-10-28T10:24:26;98885.41;;;18.89;100.00
17505;BME280;8870;50.950;11.762;2022-10-28T10:29:46;98900.19;;;19.02;100.00
17505;BME280;8870;50.950;11.762;2022-10-28T10:35:24;98892.25;;;19.14;100.00
17505;BME280;8870;50.950;11.762;2022-10-28T10:40:47;98872.56;;;19.38;100.00
17505;BME280;8870;50.950;11.762;2022-10-28T10:46:18;98880.16;;;19.56;100.00
17505;BME280;8870;50.950;11.762;2022-10-28T10:51:40;98878.25;;;19.84;100.00
17505;BME280;8870;50.950;11.762;2022-10-28T10:57:21;98874.50;;;19.98;100.00
17505;BME280;8870;50.950;11.762;2022-10-28T11:02:40;98864.81;;;20.16;100.00
17505;BME280;8870;50.950;11.762;2022-10-28T11:08:27;98863.72;;;20.30;100.00
17505;BME280;8870;50.950;11.762;2022-10-28T11:14:01;98863.88;;;20.56;100.00
17505;BME280;8870;50.950;11.762;2022-10-28T11:19:35;98864.00;;;20.88;100.00
17505;BME280;8870;50.950;11.762;2022-10-28T11:25:18;98854.59;;;21.16;100.00
17505;BME280;8870;50.950;11.762;2022-10-28T11:30:59;98849.66;;;21.57;100.00
17505;BME280;8870;50.950;11.762;2022-10-28T11:36:23;98850.75;;;21.81;100.00
17505;BME280;8870;50.950;11.762;2022-10-28T11:42:11;98853.69;;;21.86;100.00
17505;BME280;8870;50.950;11.762;2022-10-28T11:47:53;98849.09;;;21.80;100.00
17505;BME280;8870;50.950;11.762;2022-10-28T11:53:55;98860.34;;;21.72;100.00
17505;BME280;8870;50.950;11.762;2022-10-28T11:59:38;98862.06;;;21.66;100.00
17505;BME280;8870;50.950;11.762;2022-10-28T12:05:17;98863.16;;;21.58;100.00
17505;BME280;8870;50.950;11.762;2022-10-28T12:11:02;98857.94;;;21.50;100.00
17505;BME280;8870;50.950;11.762;2022-10-28T12:16:31;98862.47;;;21.37;100.00
17505;BME280;8870;50.950;11.762;2022-10-28T12:22:09;98856.59;;;21.34;100.00
17505;BME280;8870;50.950;11.762;2022-10-28T12:27:34;98849.63;;;21.31;100.00
17505;BME280;8870;50.950;11.762;2022-10-28T12:33:14;98849.47;;;21.26;100.00
17505;BME280;8870;50.950;11.762;2022-10-28T12:38:39;98838.03;;;21.29;100.00
17505;BME280;8870;50.950;11.762;2022-10-28T12:44:16;98831.28;;;21.32;100.00
17505;BME280;8870;50.950;11.762;2022-10-28T12:49:48;98821.13;;;21.39;100.00
17505;BME280;8870;50.950;11.762;2022-10-28T12:55:18;98815.41;;;21.73;100.00
17505;BME280;8870;50.950;11.762;2022-10-28T13:00:55;98808.75;;;22.06;100.00
17505;BME280;8870;50.950;11.762;2022-10-28T13:06:51;98807.75;;;22.19;100.00
17505;BME280;8870;50.950;11.762;2022-10-28T13:13:06;98793.13;;;22.06;100.00
17505;BME280;8870;50.950;11.762;2022-10-28T13:24:53;98797.09;;;21.92;100.00
17505;BME280;8870;50.950;11.762;2022-10-28T13:30:16;98794.09;;;21.93;100.00
17505;BME280;8870;50.950;11.762;2022-10-28T13:35:49;98792.78;;;21.77;100.00
17505;BME280;8870;50.950;11.762;2022-10-28T13:41:32;98800.06;;;21.65;100.00
17505;BME280;8870;50.950;11.762;2022-10-28T13:47:26;98800.31;;;21.57;100.00
17505;BME280;8870;50.950;11.762;2022-10-28T13:52:45;98796.09;;;21.54;100.00
17505;BME280;8870;50.950;11.762;2022-10-28T13:58:23;98801.19;;;21.50;100.00
17505;BME280;8870;50.950;11.762;2022-10-28T14:03:49;98799.63;;;21.68;100.00
17505;BME280;8870;50.950;11.762;2022-10-28T14:09:26;98792.94;;;21.82;100.00
17505;BME280;8870;50.950;11.762;2022-10-28T14:14:55;98781.44;;;21.92;100.00
17505;BME280;8870;50.950;11.762;2022-10-28T14:20:30;98778.34;;;22.07;100.00
17505;BME280;8870;50.950;11.762;2022-10-28T14:26:01;98782.94;;;22.13;100.00
17505;BME280;8870;50.950;11.762;2022-10-28T14:31:46;98780.38;;;22.12;100.00
17505;BME280;8870;50.950;11.762;2022-10-28T14:43:22;98783.75;;;22.14;100.00
17505;BME280;8870;50.950;11.762;2022-10-28T14:48:50;98787.19;;;22.09;100.00
17505;BME280;8870;50.950;11.762;2022-10-28T14:54:31;98787.78;;;21.93;100.00
17505;BME280;8870;50.950;11.762;2022-10-28T14:59:53;98790.19;;;21.82;100.00
17505;BME280;8870;50.950;11.762;2022-10-28T15:05:29;98781.50;;;21.67;100.00
17505;BME280;8870;50.950;11.762;2022-10-28T15:10:49;98780.50;;;21.54;100.00
17505;BME280;8870;50.950;11.762;2022-10-28T15:16:24;98775.28;;;21.46;100.00
17505;BME280;8870;50.950;11.762;2022-10-28T15:21:58;98777.31;;;21.32;100.00
17505;BME280;8870;50.950;11.762;2022-10-28T15:27:32;98782.06;;;21.18;100.00
17505;BME280;8870;50.950;11.762;2022-10-28T15:32:50;98777.28;;;21.07;100.00
17505;BME280;8870;50.950;11.762;2022-10-28T15:38:42;98784.34;;;20.89;100.00
17505;BME280;8870;50.950;11.762;2022-10-28T15:44:02;98778.31;;;20.74;100.00
17505;BME280;8870;50.950;11.762;2022-10-28T15:49:36;98781.09;;;20.60;100.00
17505;BME280;8870;50.950;11.762;2022-10-28T15:54:58;98786.00;;;20.45;100.00
17505;BME280;8870;50.950;11.762;2022-10-28T16:00:31;98779.94;;;20.29;100.00
17505;BME280;8870;50.950;11.762;2022-10-28T16:05:50;98787.78;;;20.19;100.00
17505;BME280;8870;50.950;11.762;2022-10-28T16:11:25;98788.88;;;20.05;100.00
17505;BME280;8870;50.950;11.762;2022-10-28T16:16:43;98791.84;;;19.96;100.00
17505;BME280;8870;50.950;11.762;2022-10-28T16:22:16;98803.81;;;19.89;100.00
17505;BME280;8870;50.950;11.762;2022-10-28T16:27:38;98796.47;;;19.82;100.00
17505;BME280;8870;50.950;11.762;2022-10-28T16:33:10;98802.34;;;19.73;100.00
17505;BME280;8870;50.950;11.762;2022-10-28T16:38:28;98796.88;;;19.66;100.00
17505;BME280;8870;50.950;11.762;2022-10-28T16:44:03;98787.84;;;19.65;100.00
17505;BME280;8870;50.950;11.762;2022-10-28T16:49:21;98781.97;;;19.55;100.00
17505;BME280;8870;50.950;11.762;2022-10-28T16:54:52;98788.06;;;19.50;100.00
17505;BME280;8870;50.950;11.762;2022-10-28T17:00:15;98789.75;;;19.45;100.00
17505;BME280;8870;50.950;11.762;2022-10-28T17:05:47;98794.38;;;19.37;100.00
17505;BME280;8870;50.950;11.762;2022-10-28T17:11:05;98795.00;;;19.26;100.00
17505;BME280;8870;50.950;11.762;2022-10-28T17:16:40;98791.41;;;19.19;100.00
17505;BME280;8870;50.950;11.762;2022-10-28T17:21:59;98792.06;;;19.21;100.00
17505;BME280;8870;50.950;11.762;2022-10-28T17:27:31;98793.72;;;19.15;100.00
17505;BME280;8870;50.950;11.762;2022-10-28T17:32:52;98786.75;;;19.06;100.00
17505;BME280;8870;50.950;11.762;2022-10-28T17:38:24;98793.06;;;19.00;100.00
17505;BME280;8870;50.950;11.762;2022-10-28T17:43:42;98797.47;;;19.01;100.00
17505;BME280;8870;50.950;11.762;2022-10-28T17:49:16;98805.03;;;18.99;100.00
17505;BME280;8870;50.950;11.762;2022-10-28T17:54:34;98804.97;;;18.92;100.00
17505;BME280;8870;50.950;11.762;2022-10-28T18:00:08;98801.19;;;18.86;100.00
17505;BME280;8870;50.950;11.762;2022-10-28T18:05:28;98818.59;;;18.78;100.00
17505;BME280;8870;50.950;11.762;2022-10-28T18:11:00;98821.28;;;18.65;100.00
17505;BME280;8870;50.950;11.762;2022-10-28T18:16:19;98828.75;;;18.43;100.00
17505;BME280;8870;50.950;11.762;2022-10-28T18:21:53;98824.31;;;18.35;100.00
17505;BME280;8870;50.950;11.762;2022-10-28T18:27:12;98820.47;;;18.23;100.00
17505;BME280;8870;50.950;11.762;2022-10-28T18:32:43;98815.34;;;18.13;100.00
17505;BME280;8870;50.950;11.762;2022-10-28T18:38:04;98817.16;;;17.99;100.00
17505;BME280;8870;50.950;11.762;2022-10-28T18:43:35;98825.06;;;17.94;100.00
17505;BME280;8870;50.950;11.762;2022-10-28T18:48:54;98814.31;;;17.85;100.00
17505;BME280;8870;50.950;11.762;2022-10-28T18:54:29;98813.44;;;17.78;100.00
17505;BME280;8870;50.950;11.762;2022-10-28T18:59:47;98818.88;;;17.78;100.00
17505;BME280;8870;50.950;11.762;2022-10-28T19:05:34;98813.22;;;17.80;100.00
17505;BME280;8870;50.950;11.762;2022-10-28T19:11:09;98805.50;;;17.83;100.00
17505;BME280;8870;50.950;11.762;2022-10-28T19:16:29;98801.06;;;17.76;100.00
17505;BME280;8870;50.950;11.762;2022-10-28T19:22:01;98814.22;;;17.72;100.00
17505;BME280;8870;50.950;11.762;2022-10-28T19:27:22;98817.34;;;17.69;100.00
17505;BME280;8870;50.950;11.762;2022-10-28T19:32:55;98818.34;;;17.61;100.00
17505;BME280;8870;50.950;11.762;2022-10-28T19:38:13;98826.63;;;17.53;100.00
17505;BME280;8870;50.950;11.762;2022-10-28T19:43:51;98827.69;;;17.52;100.00
17505;BME280;8870;50.950;11.762;2022-10-28T19:49:10;98835.88;;;17.52;100.00
17505;BME280;8870;50.950;11.762;2022-10-28T19:54:50;98835.47;;;17.55;100.00
17505;BME280;8870;50.950;11.762;2022-10-28T20:00:12;98833.31;;;17.50;100.00
17505;BME280;8870;50.950;11.762;2022-10-28T20:05:43;98832.66;;;17.48;100.00
17505;BME280;8870;50.950;11.762;2022-10-28T20:11:15;98846.06;;;17.43;100.00
17505;BME280;8870;50.950;11.762;2022-10-28T20:16:38;98849.16;;;17.40;100.00
17505;BME280;8870;50.950;11.762;2022-10-28T20:22:11;98855.00;;;17.37;100.00
17505;BME280;8870;50.950;11.762;2022-10-28T20:27:30;98875.88;;;17.30;100.00
17505;BME280;8870;50.950;11.762;2022-10-28T20:33:03;98874.47;;;17.34;100.00
17505;BME280;8870;50.950;11.762;2022-10-28T20:38:22;98870.94;;;17.40;100.00
17505;BME280;8870;50.950;11.762;2022-10-28T20:43:54;98873.41;;;17.35;100.00
17505;BME280;8870;50.950;11.762;2022-10-28T20:49:15;98881.31;;;17.30;100.00
17505;BME280;8870;50.950;11.762;2022-10-28T20:54:46;98890.72;;;17.27;100.00
17505;BME280;8870;50.950;11.762;2022-10-28T21:00:05;98896.19;;;17.27;100.00
17505;BME280;8870;50.950;11.762;2022-10-28T21:05:40;98892.88;;;17.32;100.00
17505;BME280;8870;50.950;11.762;2022-10-28T21:11:00;98898.69;;;17.29;100.00
17505;BME280;8870;50.950;11.762;2022-10-28T21:16:31;98903.88;;;17.23;100.00
17505;BME280;8870;50.950;11.762;2022-10-28T21:21:52;98901.56;;;17.20;100.00
17505;BME280;8870;50.950;11.762;2022-10-28T21:27:23;98899.19;;;17.17;100.00
17505;BME280;8870;50.950;11.762;2022-10-28T21:32:41;98899.59;;;17.14;100.00
17505;BME280;8870;50.950;11.762;2022-10-28T21:38:14;98902.31;;;17.14;100.00
17505;BME280;8870;50.950;11.762;2022-10-28T21:43:34;98899.34;;;17.09;100.00
17505;BME280;8870;50.950;11.762;2022-10-28T21:49:08;98900.75;;;17.05;100.00
17505;BME280;8870;50.950;11.762;2022-10-28T21:54:29;98907.88;;;17.06;100.00
17505;BME280;8870;50.950;11.762;2022-10-28T22:00:01;98921.84;;;17.03;100.00
17505;BME280;8870;50.950;11.762;2022-10-28T22:05:19;98922.88;;;17.02;100.00
17505;BME280;8870;50.950;11.762;2022-10-28T22:10:59;98918.03;;;16.97;100.00
17505;BME280;8870;50.950;11.762;2022-10-28T22:16:18;98921.13;;;16.94;100.00
17505;BME280;8870;50.950;11.762;2022-10-28T22:21:49;98935.25;;;16.89;100.00
17505;BME280;8870;50.950;11.762;2022-10-28T22:27:10;98929.38;;;16.86;100.00
17505;BME280;8870;50.950;11.762;2022-10-28T22:32:41;98932.19;;;16.77;100.00
17505;BME280;8870;50.950;11.762;2022-10-28T22:37:59;98937.34;;;16.72;100.00
17505;BME280;8870;50.950;11.762;2022-10-28T22:43:33;98942.53;;;16.67;100.00
17505;BME280;8870;50.950;11.762;2022-10-28T22:49:04;98937.81;;;16.61;100.00
17505;BME280;8870;50.950;11.762;2022-10-28T22:54:23;98934.16;;;16.54;100.00
17505;BME280;8870;50.950;11.762;2022-10-28T22:59:56;98943.06;;;16.47;100.00
17505;BME280;8870;50.950;11.762;2022-10-28T23:05:15;98949.06;;;16.43;100.00
17505;BME280;8870;50.950;11.762;2022-10-28T23:10:46;98942.13;;;16.40;100.00
17505;BME280;8870;50.950;11.762;2022-10-28T23:16:09;98947.56;;;16.40;100.00
17505;BME280;8870;50.950;11.762;2022-10-28T23:21:41;98950.28;;;16.40;100.00
17505;BME280;8870;50.950;11.762;2022-10-28T23:27:00;98947.09;;;16.37;100.00
17505;BME280;8870;50.950;11.762;2022-10-28T23:32:34;98949.81;;;16.37;100.00
17505;BME280;8870;50.950;11.762;2022-10-28T23:37:52;98950.00;;;16.35;100.00
17505;BME280;8870;50.950;11.762;2022-10-28T23:43:23;98954.25;;;16.38;100.00
17505;BME280;8870;50.950;11.762;2022-10-28T23:48:44;98954.03;;;16.39;100.00
17505;BME280;8870;50.950;11.762;2022-10-28T23:54:15;98946.75;;;16.40;100.00
17505;BME280;8870;50.950;11.762;2022-10-28T23:59:33;98951.13;;;16.41;100.00
